sensor_id;sensor_type;location;lat;lon;timestamp;P1;durP1;ratioP1;P2;durP2;ratioP2
16330;SDS011;8275;48.206;16.340;2022-07-25T00:00:01;5.80;;;4.07;;
16330;SDS011;8275;48.206;16.340;2022-07-25T00:02:30;4.18;;;3.88;;
16330;SDS011;8275;48.206;16.340;2022-07-25T00:05:00;4.15;;;3.65;;
16330;SDS011;8275;48.206;16.340;2022-07-25T00:07:30;2.97;;;2.78;;
16330;SDS011;8275;48.206;16.340;2022-07-25T00:09:58;3.40;;;3.10;;
16330;SDS011;8275;48.206;16.340;2022-07-25T00:12:27;5.90;;;5.38;;
16330;SDS011;8275;48.206;16.340;2022-07-25T00:14:55;4.80;;;3.75;;
16330;SDS011;8275;48.206;16.340;2022-07-25T00:17:24;7.63;;;3.33;;
16330;SDS011;8275;48.206;16.340;2022-07-25T00:19:52;5.68;;;4.05;;
16330;SDS011;8275;48.206;16.340;2022-07-25T00:22:22;5.28;;;2.95;;
16330;SDS011;8275;48.206;16.340;2022-07-25T00:24:50;5.15;;;2.97;;
16330;SDS011;8275;48.206;16.340;2022-07-25T00:27:19;4.47;;;3.00;;
16330;SDS011;8275;48.206;16.340;2022-07-25T00:29:47;4.80;;;2.95;;
16330;SDS011;8275;48.206;16.340;2022-07-25T00:32:16;5.85;;;3.83;;
16330;SDS011;8275;48.206;16.340;2022-07-25T00:34:44;4.85;;;3.13;;
16330;SDS011;8275;48.206;16.340;2022-07-25T00:37:13;4.43;;;3.78;;
16330;SDS011;8275;48.206;16.340;2022-07-25T00:39:42;7.72;;;4.78;;
16330;SDS011;8275;48.206;16.340;2022-07-25T00:42:11;4.93;;;3.25;;
16330;SDS011;8275;48.206;16.340;2022-07-25T00:44:39;3.75;;;2.60;;
16330;SDS011;8275;48.206;16.340;2022-07-25T00:47:08;3.33;;;3.03;;
16330;SDS011;8275;48.206;16.340;2022-07-25T00:49:36;3.83;;;3.45;;
16330;SDS011;8275;48.206;16.340;2022-07-25T00:52:05;2.97;;;2.78;;
16330;SDS011;8275;48.206;16.340;2022-07-25T00:54:33;2.83;;;2.63;;
16330;SDS011;8275;48.206;16.340;2022-07-25T00:57:03;3.10;;;2.80;;
16330;SDS011;8275;48.206;16.340;2022-07-25T00:59:32;3.45;;;2.78;;
16330;SDS011;8275;48.206;16.340;2022-07-25T01:02:00;2.92;;;2.72;;
16330;SDS011;8275;48.206;16.340;2022-07-25T01:04:29;2.55;;;2.35;;
16330;SDS011;8275;48.206;16.340;2022-07-25T01:06:58;3.45;;;2.78;;
16330;SDS011;8275;48.206;16.340;2022-07-25T01:09:27;4.55;;;3.50;;
16330;SDS011;8275;48.206;16.340;2022-07-25T01:11:56;3.50;;;3.20;;
16330;SDS011;8275;48.206;16.340;2022-07-25T01:14:26;3.88;;;3.13;;
16330;SDS011;8275;48.206;16.340;2022-07-25T01:16:54;2.47;;;2.33;;
16330;SDS011;8275;48.206;16.340;2022-07-25T01:19:22;3.05;;;2.75;;
16330;SDS011;8275;48.206;16.340;2022-07-25T01:21:52;3.13;;;2.38;;
16330;SDS011;8275;48.206;16.340;2022-07-25T01:24:21;2.50;;;2.30;;
16330;SDS011;8275;48.206;16.340;2022-07-25T01:26:50;3.05;;;2.85;;
16330;SDS011;8275;48.206;16.340;2022-07-25T01:29:18;4.20;;;3.80;;
16330;SDS011;8275;48.206;16.340;2022-07-25T01:31:47;3.28;;;2.97;;
16330;SDS011;8275;48.206;16.340;2022-07-25T01:34:15;2.80;;;2.58;;
16330;SDS011;8275;48.206;16.340;2022-07-25T01:36:44;3.20;;;2.90;;
16330;SDS011;8275;48.206;16.340;2022-07-25T01:39:13;3.28;;;2.72;;
16330;SDS011;8275;48.206;16.340;2022-07-25T01:41:42;7.70;;;3.42;;
16330;SDS011;8275;48.206;16.340;2022-07-25T01:44:10;3.33;;;3.03;;
16330;SDS011;8275;48.206;16.340;2022-07-25T01:46:39;3.08;;;2.72;;
16330;SDS011;8275;48.206;16.340;2022-07-25T01:49:07;6.13;;;3.35;;
16330;SDS011;8275;48.206;16.340;2022-07-25T01:51:36;4.22;;;2.90;;
16330;SDS011;8275;48.206;16.340;2022-07-25T01:54:04;2.85;;;2.65;;
16330;SDS011;8275;48.206;16.340;2022-07-25T01:56:41;2.78;;;2.58;;
16330;SDS011;8275;48.206;16.340;2022-07-25T01:59:13;3.42;;;3.13;;
16330;SDS011;8275;48.206;16.340;2022-07-25T02:01:42;2.70;;;2.50;;
16330;SDS011;8275;48.206;16.340;2022-07-25T02:04:10;3.20;;;3.00;;
16330;SDS011;8275;48.206;16.340;2022-07-25T02:06:39;3.17;;;2.97;;
16330;SDS011;8275;48.206;16.340;2022-07-25T02:09:07;3.40;;;3.10;;
16330;SDS011;8275;48.206;16.340;2022-07-25T02:11:37;3.50;;;2.88;;
16330;SDS011;8275;48.206;16.340;2022-07-25T02:14:06;5.22;;;2.88;;
16330;SDS011;8275;48.206;16.340;2022-07-25T02:16:35;3.15;;;2.95;;
16330;SDS011;8275;48.206;16.340;2022-07-25T02:19:03;3.78;;;3.22;;
16330;SDS011;8275;48.206;16.340;2022-07-25T02:21:32;4.82;;;3.40;;
16330;SDS011;8275;48.206;16.340;2022-07-25T02:24:01;4.65;;;2.80;;
16330;SDS011;8275;48.206;16.340;2022-07-25T02:26:30;3.42;;;3.13;;
16330;SDS011;8275;48.206;16.340;2022-07-25T02:29:00;3.47;;;2.88;;
16330;SDS011;8275;48.206;16.340;2022-07-25T02:31:28;3.88;;;3.58;;
16330;SDS011;8275;48.206;16.340;2022-07-25T02:33:56;2.85;;;2.65;;
16330;SDS011;8275;48.206;16.340;2022-07-25T02:36:25;7.97;;;3.20;;
16330;SDS011;8275;48.206;16.340;2022-07-25T02:38:53;2.78;;;2.58;;
16330;SDS011;8275;48.206;16.340;2022-07-25T02:41:22;3.47;;;3.17;;
16330;SDS011;8275;48.206;16.340;2022-07-25T02:43:50;3.00;;;2.80;;
16330;SDS011;8275;48.206;16.340;2022-07-25T02:46:20;3.15;;;2.90;;
16330;SDS011;8275;48.206;16.340;2022-07-25T02:48:49;3.28;;;3.03;;
16330;SDS011;8275;48.206;16.340;2022-07-25T02:51:17;3.60;;;3.28;;
16330;SDS011;8275;48.206;16.340;2022-07-25T02:53:46;4.72;;;3.88;;
16330;SDS011;8275;48.206;16.340;2022-07-25T02:56:24;2.92;;;2.72;;
16330;SDS011;8275;48.206;16.340;2022-07-25T02:58:55;4.18;;;3.78;;
16330;SDS011;8275;48.206;16.340;2022-07-25T03:01:25;4.07;;;3.72;;
16330;SDS011;8275;48.206;16.340;2022-07-25T03:03:53;4.50;;;4.10;;
16330;SDS011;8275;48.206;16.340;2022-07-25T03:06:22;3.15;;;2.95;;
16330;SDS011;8275;48.206;16.340;2022-07-25T03:08:50;4.38;;;3.92;;
16330;SDS011;8275;48.206;16.340;2022-07-25T03:11:19;3.45;;;3.13;;
16330;SDS011;8275;48.206;16.340;2022-07-25T03:13:47;6.05;;;3.22;;
16330;SDS011;8275;48.206;16.340;2022-07-25T03:16:16;3.15;;;2.88;;
16330;SDS011;8275;48.206;16.340;2022-07-25T03:18:46;3.78;;;2.85;;
16330;SDS011;8275;48.206;16.340;2022-07-25T03:21:14;2.95;;;2.47;;
16330;SDS011;8275;48.206;16.340;2022-07-25T03:23:43;2.83;;;2.60;;
16330;SDS011;8275;48.206;16.340;2022-07-25T03:26:17;2.88;;;2.58;;
16330;SDS011;8275;48.206;16.340;2022-07-25T03:28:46;3.88;;;3.25;;
16330;SDS011;8275;48.206;16.340;2022-07-25T03:31:14;3.00;;;2.70;;
16330;SDS011;8275;48.206;16.340;2022-07-25T03:33:43;4.95;;;4.18;;
16330;SDS011;8275;48.206;16.340;2022-07-25T03:36:13;2.92;;;2.72;;
16330;SDS011;8275;48.206;16.340;2022-07-25T03:38:41;4.60;;;3.92;;
16330;SDS011;8275;48.206;16.340;2022-07-25T03:41:10;4.05;;;3.67;;
16330;SDS011;8275;48.206;16.340;2022-07-25T03:43:39;3.42;;;3.13;;
16330;SDS011;8275;48.206;16.340;2022-07-25T03:46:07;2.92;;;2.72;;
16330;SDS011;8275;48.206;16.340;2022-07-25T03:48:36;3.60;;;3.30;;
16330;SDS011;8275;48.206;16.340;2022-07-25T03:51:06;4.55;;;4.07;;
16330;SDS011;8275;48.206;16.340;2022-07-25T03:53:34;3.63;;;3.00;;
16330;SDS011;8275;48.206;16.340;2022-07-25T03:56:23;3.03;;;2.83;;
16330;SDS011;8275;48.206;16.340;2022-07-25T03:58:52;2.78;;;2.58;;
16330;SDS011;8275;48.206;16.340;2022-07-25T04:01:20;5.60;;;3.13;;
16330;SDS011;8275;48.206;16.340;2022-07-25T04:03:51;3.95;;;3.03;;
16330;SDS011;8275;48.206;16.340;2022-07-25T04:06:21;4.28;;;3.60;;
16330;SDS011;8275;48.206;16.340;2022-07-25T04:08:50;2.90;;;2.70;;
16330;SDS011;8275;48.206;16.340;2022-07-25T04:11:19;2.63;;;2.40;;
16330;SDS011;8275;48.206;16.340;2022-07-25T04:13:48;4.68;;;2.50;;
16330;SDS011;8275;48.206;16.340;2022-07-25T04:16:17;3.47;;;3.17;;
16330;SDS011;8275;48.206;16.340;2022-07-25T04:18:48;3.08;;;2.85;;
16330;SDS011;8275;48.206;16.340;2022-07-25T04:21:17;3.63;;;2.88;;
16330;SDS011;8275;48.206;16.340;2022-07-25T04:23:48;4.45;;;2.88;;
16330;SDS011;8275;48.206;16.340;2022-07-25T04:26:16;2.97;;;2.78;;
16330;SDS011;8275;48.206;16.340;2022-07-25T04:28:46;3.97;;;3.13;;
16330;SDS011;8275;48.206;16.340;2022-07-25T04:31:14;3.38;;;3.08;;
16330;SDS011;8275;48.206;16.340;2022-07-25T04:33:43;5.70;;;3.42;;
16330;SDS011;8275;48.206;16.340;2022-07-25T04:36:12;5.15;;;4.18;;
16330;SDS011;8275;48.206;16.340;2022-07-25T04:38:40;2.85;;;2.65;;
16330;SDS011;8275;48.206;16.340;2022-07-25T04:41:10;2.42;;;2.22;;
16330;SDS011;8275;48.206;16.340;2022-07-25T04:43:39;3.42;;;3.13;;
16330;SDS011;8275;48.206;16.340;2022-07-25T04:46:16;4.03;;;3.60;;
16330;SDS011;8275;48.206;16.340;2022-07-25T04:48:45;4.57;;;3.30;;
16330;SDS011;8275;48.206;16.340;2022-07-25T04:51:14;2.83;;;2.60;;
16330;SDS011;8275;48.206;16.340;2022-07-25T04:53:43;5.07;;;3.55;;
16330;SDS011;8275;48.206;16.340;2022-07-25T04:56:13;3.85;;;3.50;;
16330;SDS011;8275;48.206;16.340;2022-07-25T04:58:41;5.05;;;3.95;;
16330;SDS011;8275;48.206;16.340;2022-07-25T05:01:10;4.45;;;4.15;;
16330;SDS011;8275;48.206;16.340;2022-07-25T05:03:38;3.92;;;3.55;;
16330;SDS011;8275;48.206;16.340;2022-07-25T05:06:15;3.92;;;3.63;;
16330;SDS011;8275;48.206;16.340;2022-07-25T05:08:44;5.43;;;4.80;;
16330;SDS011;8275;48.206;16.340;2022-07-25T05:11:14;3.63;;;2.85;;
16330;SDS011;8275;48.206;16.340;2022-07-25T05:13:42;3.40;;;3.08;;
16330;SDS011;8275;48.206;16.340;2022-07-25T05:16:11;6.90;;;3.45;;
16330;SDS011;8275;48.206;16.340;2022-07-25T05:18:39;4.55;;;4.15;;
16330;SDS011;8275;48.206;16.340;2022-07-25T05:21:08;4.35;;;3.95;;
16330;SDS011;8275;48.206;16.340;2022-07-25T05:23:39;3.88;;;3.58;;
16330;SDS011;8275;48.206;16.340;2022-07-25T05:26:07;4.07;;;3.78;;
16330;SDS011;8275;48.206;16.340;2022-07-25T05:28:37;4.18;;;3.80;;
16330;SDS011;8275;48.206;16.340;2022-07-25T05:31:06;7.22;;;4.32;;
16330;SDS011;8275;48.206;16.340;2022-07-25T05:33:34;13.40;;;4.68;;
16330;SDS011;8275;48.206;16.340;2022-07-25T05:36:03;5.57;;;5.10;;
16330;SDS011;8275;48.206;16.340;2022-07-25T05:38:34;4.50;;;4.10;;
16330;SDS011;8275;48.206;16.340;2022-07-25T05:41:02;4.38;;;3.97;;
16330;SDS011;8275;48.206;16.340;2022-07-25T05:43:31;4.22;;;3.83;;
16330;SDS011;8275;48.206;16.340;2022-07-25T05:46:01;3.65;;;3.28;;
16330;SDS011;8275;48.206;16.340;2022-07-25T05:48:30;4.78;;;4.25;;
16330;SDS011;8275;48.206;16.340;2022-07-25T05:50:59;6.97;;;4.20;;
16330;SDS011;8275;48.206;16.340;2022-07-25T05:53:28;4.35;;;3.95;;
16330;SDS011;8275;48.206;16.340;2022-07-25T05:55:56;4.90;;;3.63;;
16330;SDS011;8275;48.206;16.340;2022-07-25T05:58:24;4.60;;;4.20;;
16330;SDS011;8275;48.206;16.340;2022-07-25T06:00:55;4.47;;;4.07;;
16330;SDS011;8275;48.206;16.340;2022-07-25T06:03:25;5.13;;;4.13;;
16330;SDS011;8275;48.206;16.340;2022-07-25T06:05:54;6.88;;;4.47;;
16330;SDS011;8275;48.206;16.340;2022-07-25T06:08:23;4.85;;;4.00;;
16330;SDS011;8275;48.206;16.340;2022-07-25T06:10:54;4.40;;;3.90;;
16330;SDS011;8275;48.206;16.340;2022-07-25T06:13:24;4.25;;;3.58;;
16330;SDS011;8275;48.206;16.340;2022-07-25T06:15:53;4.78;;;4.30;;
16330;SDS011;8275;48.206;16.340;2022-07-25T06:18:22;4.47;;;4.13;;
16330;SDS011;8275;48.206;16.340;2022-07-25T06:20:52;3.65;;;3.28;;
16330;SDS011;8275;48.206;16.340;2022-07-25T06:23:20;5.70;;;3.80;;
16330;SDS011;8275;48.206;16.340;2022-07-25T06:25:53;5.32;;;4.28;;
16330;SDS011;8275;48.206;16.340;2022-07-25T06:28:21;6.65;;;4.63;;
16330;SDS011;8275;48.206;16.340;2022-07-25T06:30:49;5.45;;;4.95;;
16330;SDS011;8275;48.206;16.340;2022-07-25T06:33:18;5.68;;;4.05;;
16330;SDS011;8275;48.206;16.340;2022-07-25T06:35:46;4.05;;;3.75;;
16330;SDS011;8275;48.206;16.340;2022-07-25T06:38:16;5.30;;;4.82;;
16330;SDS011;8275;48.206;16.340;2022-07-25T06:40:45;5.07;;;4.68;;
16330;SDS011;8275;48.206;16.340;2022-07-25T06:43:16;5.15;;;4.70;;
16330;SDS011;8275;48.206;16.340;2022-07-25T06:45:44;17.67;;;4.50;;
16330;SDS011;8275;48.206;16.340;2022-07-25T06:48:13;4.68;;;4.28;;
16330;SDS011;8275;48.206;16.340;2022-07-25T06:50:42;4.50;;;4.10;;
16330;SDS011;8275;48.206;16.340;2022-07-25T06:53:11;5.07;;;4.57;;
16330;SDS011;8275;48.206;16.340;2022-07-25T06:55:41;5.35;;;4.75;;
16330;SDS011;8275;48.206;16.340;2022-07-25T06:58:09;5.30;;;4.82;;
16330;SDS011;8275;48.206;16.340;2022-07-25T07:00:38;4.70;;;4.22;;
16330;SDS011;8275;48.206;16.340;2022-07-25T07:03:06;5.40;;;4.85;;
16330;SDS011;8275;48.206;16.340;2022-07-25T07:05:35;8.43;;;4.97;;
16330;SDS011;8275;48.206;16.340;2022-07-25T07:08:03;5.22;;;3.85;;
16330;SDS011;8275;48.206;16.340;2022-07-25T07:10:32;7.65;;;4.88;;
16330;SDS011;8275;48.206;16.340;2022-07-25T07:13:03;5.47;;;4.25;;
16330;SDS011;8275;48.206;16.340;2022-07-25T07:15:34;6.47;;;4.80;;
16330;SDS011;8275;48.206;16.340;2022-07-25T07:18:03;4.90;;;4.50;;
16330;SDS011;8275;48.206;16.340;2022-07-25T07:20:32;4.20;;;3.80;;
16330;SDS011;8275;48.206;16.340;2022-07-25T07:23:01;4.30;;;3.85;;
16330;SDS011;8275;48.206;16.340;2022-07-25T07:25:30;4.75;;;3.83;;
16330;SDS011;8275;48.206;16.340;2022-07-25T07:28:00;4.70;;;4.05;;
16330;SDS011;8275;48.206;16.340;2022-07-25T07:30:30;5.50;;;3.95;;
16330;SDS011;8275;48.206;16.340;2022-07-25T07:33:18;4.43;;;3.33;;
16330;SDS011;8275;48.206;16.340;2022-07-25T07:35:47;3.75;;;3.45;;
16330;SDS011;8275;48.206;16.340;2022-07-25T07:38:15;3.03;;;2.72;;
16330;SDS011;8275;48.206;16.340;2022-07-25T07:40:44;3.00;;;2.70;;
16330;SDS011;8275;48.206;16.340;2022-07-25T07:43:12;4.75;;;2.67;;
16330;SDS011;8275;48.206;16.340;2022-07-25T07:45:42;2.38;;;2.17;;
16330;SDS011;8275;48.206;16.340;2022-07-25T07:48:11;6.10;;;3.13;;
16330;SDS011;8275;48.206;16.340;2022-07-25T07:50:39;3.72;;;2.25;;
16330;SDS011;8275;48.206;16.340;2022-07-25T07:53:08;3.13;;;2.80;;
16330;SDS011;8275;48.206;16.340;2022-07-25T07:55:36;3.05;;;2.85;;
16330;SDS011;8275;48.206;16.340;2022-07-25T07:58:10;2.10;;;1.98;;
16330;SDS011;8275;48.206;16.340;2022-07-25T08:00:44;3.28;;;2.97;;
16330;SDS011;8275;48.206;16.340;2022-07-25T08:03:16;2.47;;;2.22;;
16330;SDS011;8275;48.206;16.340;2022-07-25T08:05:46;2.25;;;2.15;;
16330;SDS011;8275;48.206;16.340;2022-07-25T08:08:17;2.25;;;2.05;;
16330;SDS011;8275;48.206;16.340;2022-07-25T08:10:46;1.80;;;1.70;;
16330;SDS011;8275;48.206;16.340;2022-07-25T08:13:22;2.00;;;1.75;;
16330;SDS011;8275;48.206;16.340;2022-07-25T08:15:57;2.95;;;2.50;;
16330;SDS011;8275;48.206;16.340;2022-07-25T08:18:29;5.05;;;2.17;;
16330;SDS011;8275;48.206;16.340;2022-07-25T08:20:59;2.60;;;2.40;;
16330;SDS011;8275;48.206;16.340;2022-07-25T08:23:31;3.92;;;2.33;;
16330;SDS011;8275;48.206;16.340;2022-07-25T08:26:01;2.95;;;2.65;;
16330;SDS011;8275;48.206;16.340;2022-07-25T08:28:29;2.85;;;2.65;;
16330;SDS011;8275;48.206;16.340;2022-07-25T08:30:59;3.70;;;2.72;;
16330;SDS011;8275;48.206;16.340;2022-07-25T08:33:28;5.68;;;2.17;;
16330;SDS011;8275;48.206;16.340;2022-07-25T08:35:57;3.25;;;2.15;;
16330;SDS011;8275;48.206;16.340;2022-07-25T08:38:26;4.28;;;2.40;;
16330;SDS011;8275;48.206;16.340;2022-07-25T08:40:55;3.50;;;2.60;;
16330;SDS011;8275;48.206;16.340;2022-07-25T08:43:25;3.08;;;2.88;;
16330;SDS011;8275;48.206;16.340;2022-07-25T08:45:59;2.30;;;2.20;;
16330;SDS011;8275;48.206;16.340;2022-07-25T08:48:28;3.10;;;2.85;;
16330;SDS011;8275;48.206;16.340;2022-07-25T08:50:57;2.75;;;2.55;;
16330;SDS011;8275;48.206;16.340;2022-07-25T08:53:29;2.60;;;2.42;;
16330;SDS011;8275;48.206;16.340;2022-07-25T08:56:00;3.35;;;2.22;;
16330;SDS011;8275;48.206;16.340;2022-07-25T08:58:36;2.72;;;2.10;;
16330;SDS011;8275;48.206;16.340;2022-07-25T09:01:07;2.67;;;2.50;;
16330;SDS011;8275;48.206;16.340;2022-07-25T09:03:36;9.07;;;2.40;;
16330;SDS011;8275;48.206;16.340;2022-07-25T09:06:12;12.95;;;2.72;;
16330;SDS011;8275;48.206;16.340;2022-07-25T09:08:50;2.97;;;2.78;;
16330;SDS011;8275;48.206;16.340;2022-07-25T09:11:25;3.25;;;2.80;;
16330;SDS011;8275;48.206;16.340;2022-07-25T09:13:56;8.45;;;2.85;;
16330;SDS011;8275;48.206;16.340;2022-07-25T09:16:29;5.43;;;3.17;;
16330;SDS011;8275;48.206;16.340;2022-07-25T09:19:08;3.10;;;2.63;;
16330;SDS011;8275;48.206;16.340;2022-07-25T09:21:40;2.92;;;2.47;;
16330;SDS011;8275;48.206;16.340;2022-07-25T09:24:12;2.78;;;2.58;;
16330;SDS011;8275;48.206;16.340;2022-07-25T09:26:46;3.35;;;2.65;;
16330;SDS011;8275;48.206;16.340;2022-07-25T09:29:24;2.95;;;2.75;;
16330;SDS011;8275;48.206;16.340;2022-07-25T09:31:57;5.80;;;3.65;;
16330;SDS011;8275;48.206;16.340;2022-07-25T09:34:34;3.60;;;2.47;;
16330;SDS011;8275;48.206;16.340;2022-07-25T09:37:05;3.75;;;3.00;;
16330;SDS011;8275;48.206;16.340;2022-07-25T09:39:37;3.08;;;2.78;;
16330;SDS011;8275;48.206;16.340;2022-07-25T09:42:19;3.67;;;3.38;;
16330;SDS011;8275;48.206;16.340;2022-07-25T09:45:00;3.13;;;2.75;;
16330;SDS011;8275;48.206;16.340;2022-07-25T09:47:34;3.53;;;3.03;;
16330;SDS011;8275;48.206;16.340;2022-07-25T09:50:04;4.65;;;3.00;;
16330;SDS011;8275;48.206;16.340;2022-07-25T09:52:34;3.38;;;3.13;;
16330;SDS011;8275;48.206;16.340;2022-07-25T09:55:05;3.67;;;3.38;;
16330;SDS011;8275;48.206;16.340;2022-07-25T09:57:35;4.18;;;3.65;;
16330;SDS011;8275;48.206;16.340;2022-07-25T10:00:05;4.63;;;3.05;;
16330;SDS011;8275;48.206;16.340;2022-07-25T10:02:40;3.55;;;3.25;;
16330;SDS011;8275;48.206;16.340;2022-07-25T10:05:18;5.88;;;4.15;;
16330;SDS011;8275;48.206;16.340;2022-07-25T10:07:56;4.28;;;3.88;;
16330;SDS011;8275;48.206;16.340;2022-07-25T10:10:27;4.55;;;4.15;;
16330;SDS011;8275;48.206;16.340;2022-07-25T10:13:03;4.22;;;3.92;;
16330;SDS011;8275;48.206;16.340;2022-07-25T10:15:40;5.78;;;4.57;;
16330;SDS011;8275;48.206;16.340;2022-07-25T10:18:13;4.20;;;3.90;;
16330;SDS011;8275;48.206;16.340;2022-07-25T10:20:44;4.32;;;3.90;;
16330;SDS011;8275;48.206;16.340;2022-07-25T10:23:18;4.00;;;3.65;;
16330;SDS011;8275;48.206;16.340;2022-07-25T10:25:59;8.30;;;4.03;;
16330;SDS011;8275;48.206;16.340;2022-07-25T10:28:38;13.02;;;4.30;;
16330;SDS011;8275;48.206;16.340;2022-07-25T10:31:16;4.63;;;3.85;;
16330;SDS011;8275;48.206;16.340;2022-07-25T10:33:53;3.50;;;3.20;;
16330;SDS011;8275;48.206;16.340;2022-07-25T10:36:25;4.05;;;3.75;;
16330;SDS011;8275;48.206;16.340;2022-07-25T10:38:59;4.65;;;4.25;;
16330;SDS011;8275;48.206;16.340;2022-07-25T10:41:28;4.13;;;3.78;;
16330;SDS011;8275;48.206;16.340;2022-07-25T10:44:01;4.38;;;3.97;;
16330;SDS011;8275;48.206;16.340;2022-07-25T10:46:33;7.40;;;4.15;;
16330;SDS011;8275;48.206;16.340;2022-07-25T10:49:05;3.88;;;3.58;;
16330;SDS011;8275;48.206;16.340;2022-07-25T10:51:36;4.03;;;3.72;;
16330;SDS011;8275;48.206;16.340;2022-07-25T10:54:11;3.63;;;3.33;;
16330;SDS011;8275;48.206;16.340;2022-07-25T10:56:50;3.60;;;3.30;;
16330;SDS011;8275;48.206;16.340;2022-07-25T10:59:24;3.63;;;3.42;;
16330;SDS011;8275;48.206;16.340;2022-07-25T11:01:59;4.95;;;4.55;;
16330;SDS011;8275;48.206;16.340;2022-07-25T11:04:31;3.92;;;3.60;;
16330;SDS011;8275;48.206;16.340;2022-07-25T11:07:06;4.38;;;4.07;;
16330;SDS011;8275;48.206;16.340;2022-07-25T11:09:36;4.55;;;4.25;;
16330;SDS011;8275;48.206;16.340;2022-07-25T11:12:05;3.75;;;3.50;;
16330;SDS011;8275;48.206;16.340;2022-07-25T11:14:35;4.63;;;4.20;;
16330;SDS011;8275;48.206;16.340;2022-07-25T11:17:10;4.50;;;4.13;;
16330;SDS011;8275;48.206;16.340;2022-07-25T11:19:43;4.15;;;3.85;;
16330;SDS011;8275;48.206;16.340;2022-07-25T11:22:20;4.97;;;4.43;;
16330;SDS011;8275;48.206;16.340;2022-07-25T11:24:49;5.00;;;3.97;;
16330;SDS011;8275;48.206;16.340;2022-07-25T11:27:21;4.00;;;3.80;;
16330;SDS011;8275;48.206;16.340;2022-07-25T11:29:51;3.55;;;3.17;;
16330;SDS011;8275;48.206;16.340;2022-07-25T11:32:20;3.95;;;3.75;;
16330;SDS011;8275;48.206;16.340;2022-07-25T11:34:51;7.85;;;3.97;;
16330;SDS011;8275;48.206;16.340;2022-07-25T11:37:20;4.22;;;3.83;;
16330;SDS011;8275;48.206;16.340;2022-07-25T11:39:49;3.83;;;3.63;;
16330;SDS011;8275;48.206;16.340;2022-07-25T11:42:18;3.72;;;3.35;;
16330;SDS011;8275;48.206;16.340;2022-07-25T11:44:48;4.25;;;3.95;;
16330;SDS011;8275;48.206;16.340;2022-07-25T11:47:24;4.50;;;3.92;;
16330;SDS011;8275;48.206;16.340;2022-07-25T11:49:57;3.85;;;3.55;;
16330;SDS011;8275;48.206;16.340;2022-07-25T11:52:29;3.83;;;3.63;;
16330;SDS011;8275;48.206;16.340;2022-07-25T11:55:00;4.05;;;3.75;;
16330;SDS011;8275;48.206;16.340;2022-07-25T11:57:31;5.75;;;3.75;;
16330;SDS011;8275;48.206;16.340;2022-07-25T12:00:03;4.97;;;4.03;;
16330;SDS011;8275;48.206;16.340;2022-07-25T12:02:36;4.20;;;3.92;;
16330;SDS011;8275;48.206;16.340;2022-07-25T12:05:07;4.38;;;3.58;;
16330;SDS011;8275;48.206;16.340;2022-07-25T12:07:40;3.92;;;3.67;;
16330;SDS011;8275;48.206;16.340;2022-07-25T12:10:12;4.15;;;3.88;;
16330;SDS011;8275;48.206;16.340;2022-07-25T12:12:43;3.90;;;3.60;;
16330;SDS011;8275;48.206;16.340;2022-07-25T12:15:16;4.10;;;3.80;;
16330;SDS011;8275;48.206;16.340;2022-07-25T12:17:47;4.07;;;3.88;;
16330;SDS011;8275;48.206;16.340;2022-07-25T12:20:18;4.40;;;4.10;;
16330;SDS011;8275;48.206;16.340;2022-07-25T12:22:51;4.10;;;3.80;;
16330;SDS011;8275;48.206;16.340;2022-07-25T12:25:22;4.97;;;3.83;;
16330;SDS011;8275;48.206;16.340;2022-07-25T12:27:56;5.05;;;4.65;;
16330;SDS011;8275;48.206;16.340;2022-07-25T12:30:25;4.30;;;4.00;;
16330;SDS011;8275;48.206;16.340;2022-07-25T12:32:55;7.43;;;4.70;;
16330;SDS011;8275;48.206;16.340;2022-07-25T12:35:26;4.47;;;4.07;;
16330;SDS011;8275;48.206;16.340;2022-07-25T12:37:55;5.72;;;4.30;;
16330;SDS011;8275;48.206;16.340;2022-07-25T12:40:24;4.60;;;4.20;;
16330;SDS011;8275;48.206;16.340;2022-07-25T12:42:52;4.05;;;3.75;;
16330;SDS011;8275;48.206;16.340;2022-07-25T12:45:22;3.67;;;3.47;;
16330;SDS011;8275;48.206;16.340;2022-07-25T12:47:51;4.10;;;3.83;;
16330;SDS011;8275;48.206;16.340;2022-07-25T12:50:19;5.10;;;4.70;;
16330;SDS011;8275;48.206;16.340;2022-07-25T12:52:52;6.55;;;3.78;;
16330;SDS011;8275;48.206;16.340;2022-07-25T12:55:21;3.78;;;3.50;;
16330;SDS011;8275;48.206;16.340;2022-07-25T12:57:49;5.63;;;4.00;;
16330;SDS011;8275;48.206;16.340;2022-07-25T13:00:19;4.95;;;4.65;;
16330;SDS011;8275;48.206;16.340;2022-07-25T13:02:49;3.70;;;3.50;;
16330;SDS011;8275;48.206;16.340;2022-07-25T13:05:21;4.15;;;3.95;;
16330;SDS011;8275;48.206;16.340;2022-07-25T13:07:53;3.30;;;3.10;;
16330;SDS011;8275;48.206;16.340;2022-07-25T13:10:21;4.47;;;4.18;;
16330;SDS011;8275;48.206;16.340;2022-07-25T13:12:50;4.38;;;4.07;;
16330;SDS011;8275;48.206;16.340;2022-07-25T13:15:18;3.75;;;3.55;;
16330;SDS011;8275;48.206;16.340;2022-07-25T13:17:48;4.30;;;4.00;;
16330;SDS011;8275;48.206;16.340;2022-07-25T13:20:17;9.30;;;4.80;;
16330;SDS011;8275;48.206;16.340;2022-07-25T13:22:45;4.55;;;4.25;;
16330;SDS011;8275;48.206;16.340;2022-07-25T13:25:15;5.15;;;4.75;;
16330;SDS011;8275;48.206;16.340;2022-07-25T13:27:45;5.07;;;4.78;;
16330;SDS011;8275;48.206;16.340;2022-07-25T13:30:14;4.53;;;4.15;;
16330;SDS011;8275;48.206;16.340;2022-07-25T13:32:43;4.13;;;3.92;;
16330;SDS011;8275;48.206;16.340;2022-07-25T13:35:12;4.13;;;3.90;;
16330;SDS011;8275;48.206;16.340;2022-07-25T13:37:45;4.30;;;4.10;;
16330;SDS011;8275;48.206;16.340;2022-07-25T13:40:16;5.93;;;4.65;;
16330;SDS011;8275;48.206;16.340;2022-07-25T13:42:44;4.40;;;4.10;;
16330;SDS011;8275;48.206;16.340;2022-07-25T13:45:12;3.70;;;3.50;;
16330;SDS011;8275;48.206;16.340;2022-07-25T13:47:41;4.47;;;4.18;;
16330;SDS011;8275;48.206;16.340;2022-07-25T13:50:09;4.70;;;4.45;;
16330;SDS011;8275;48.206;16.340;2022-07-25T13:52:38;4.47;;;4.18;;
16330;SDS011;8275;48.206;16.340;2022-07-25T13:55:07;5.53;;;5.03;;
16330;SDS011;8275;48.206;16.340;2022-07-25T13:57:38;4.22;;;3.97;;
16330;SDS011;8275;48.206;16.340;2022-07-25T14:00:06;4.35;;;4.15;;
16330;SDS011;8275;48.206;16.340;2022-07-25T14:02:36;3.90;;;3.70;;
16330;SDS011;8275;48.206;16.340;2022-07-25T14:05:05;4.57;;;4.28;;
16330;SDS011;8275;48.206;16.340;2022-07-25T14:07:35;4.47;;;4.25;;
16330;SDS011;8275;48.206;16.340;2022-07-25T14:10:04;4.40;;;4.20;;
16330;SDS011;8275;48.206;16.340;2022-07-25T14:12:33;4.93;;;4.53;;
16330;SDS011;8275;48.206;16.340;2022-07-25T14:15:04;4.57;;;4.28;;
16330;SDS011;8275;48.206;16.340;2022-07-25T14:17:34;4.07;;;3.78;;
16330;SDS011;8275;48.206;16.340;2022-07-25T14:20:04;4.68;;;4.28;;
16330;SDS011;8275;48.206;16.340;2022-07-25T14:22:35;4.82;;;4.53;;
16330;SDS011;8275;48.206;16.340;2022-07-25T14:25:05;4.63;;;4.32;;
16330;SDS011;8275;48.206;16.340;2022-07-25T14:27:34;5.22;;;4.60;;
16330;SDS011;8275;48.206;16.340;2022-07-25T14:30:05;5.15;;;4.82;;
16330;SDS011;8275;48.206;16.340;2022-07-25T14:32:35;4.57;;;4.30;;
16330;SDS011;8275;48.206;16.340;2022-07-25T14:35:04;4.85;;;4.45;;
16330;SDS011;8275;48.206;16.340;2022-07-25T14:37:33;3.85;;;3.65;;
16330;SDS011;8275;48.206;16.340;2022-07-25T14:40:02;4.63;;;4.32;;
16330;SDS011;8275;48.206;16.340;2022-07-25T14:42:32;4.72;;;4.32;;
16330;SDS011;8275;48.206;16.340;2022-07-25T14:45:00;4.30;;;3.90;;
16330;SDS011;8275;48.206;16.340;2022-07-25T14:47:30;5.10;;;4.65;;
16330;SDS011;8275;48.206;16.340;2022-07-25T14:49:58;7.78;;;4.35;;
16330;SDS011;8275;48.206;16.340;2022-07-25T14:52:27;4.65;;;4.25;;
16330;SDS011;8275;48.206;16.340;2022-07-25T14:54:55;5.22;;;4.93;;
16330;SDS011;8275;48.206;16.340;2022-07-25T14:57:24;4.65;;;4.45;;
16330;SDS011;8275;48.206;16.340;2022-07-25T14:59:52;4.88;;;4.55;;
16330;SDS011;8275;48.206;16.340;2022-07-25T15:02:21;4.07;;;3.85;;
16330;SDS011;8275;48.206;16.340;2022-07-25T15:04:50;4.85;;;4.38;;